createdAt,value
2018-09-16T00:01:01.697Z,99.9
2018-09-16T00:02:08.645Z,99.9
2018-09-16T00:03:15.584Z,99.9
2018-09-16T00:04:22.518Z,99.9
2018-09-16T00:05:29.466Z,99.9
2018-09-16T00:06:36.676Z,99.9
2018-09-16T00:07:43.887Z,99.9
2018-09-16T00:08:51.111Z,99.9
2018-09-16T00:09:58.319Z,99.9
2018-09-16T00:11:05.532Z,99.9
2018-09-16T00:12:12.742Z,99.9
2018-09-16T00:13:19.950Z,99.9
2018-09-16T00:14:26.902Z,99.9
2018-09-16T00:15:34.172Z,99.9
2018-09-16T00:16:41.379Z,99.9
2018-09-16T00:17:48.594Z,99.9
2018-09-16T00:18:55.805Z,99.9
2018-09-16T00:20:03.011Z,99.9
2018-09-16T00:21:10.231Z,99.9
2018-09-16T00:22:17.448Z,99.9
2018-09-16T00:23:24.651Z,99.9
2018-09-16T00:24:31.861Z,99.9
2018-09-16T00:25:39.069Z,99.9
2018-09-16T00:26:46.278Z,99.9
2018-09-16T00:27:53.493Z,99.9
2018-09-16T00:29:00.704Z,99.9
2018-09-16T00:30:07.913Z,99.9
2018-09-16T00:31:15.123Z,99.9
2018-09-16T00:32:22.334Z,99.9
2018-09-16T00:33:29.265Z,99.9
2018-09-16T00:34:36.483Z,99.9
2018-09-16T00:35:43.691Z,99.9
2018-09-16T00:36:50.901Z,99.9
2018-09-16T00:37:58.110Z,99.9
2018-09-16T00:39:05.316Z,99.9
2018-09-16T00:40:12.524Z,99.9
2018-09-16T00:41:19.735Z,99.9
2018-09-16T00:42:26.965Z,99.9
2018-09-16T00:43:34.179Z,99.9
2018-09-16T00:44:41.388Z,99.9
2018-09-16T00:45:48.602Z,99.9
2018-09-16T00:46:55.815Z,99.9
2018-09-16T00:48:02.768Z,99.9
2018-09-16T00:49:09.425Z,99.9
2018-09-16T00:50:16.678Z,99.9
2018-09-16T00:51:23.874Z,99.9
2018-09-16T00:52:31.083Z,99.9
2018-09-16T00:53:38.030Z,99.9
2018-09-16T00:54:45.242Z,99.9
2018-09-16T00:55:52.178Z,99.9
2018-09-16T00:56:58.851Z,99.9
2018-09-16T00:58:06.055Z,99.9
2018-09-16T00:59:13.271Z,99.9
2018-09-16T01:00:20.212Z,99.9
2018-09-16T01:01:27.418Z,99.9
2018-09-16T01:02:34.670Z,99.9
2018-09-16T01:03:41.613Z,99.9
2018-09-16T01:04:49.040Z,99.9
2018-09-16T01:05:56.242Z,99.9
2018-09-16T01:07:03.483Z,99.9
2018-09-16T01:08:10.681Z,99.9
2018-09-16T01:09:17.898Z,99.9
2018-09-16T01:10:25.104Z,99.9
2018-09-16T01:11:32.322Z,99.9
2018-09-16T01:12:39.526Z,99.9
2018-09-16T01:13:46.738Z,99.9
2018-09-16T01:14:53.947Z,99.9
2018-09-16T01:16:01.161Z,99.9
2018-09-16T01:17:08.365Z,99.9
2018-09-16T01:18:15.576Z,99.9
2018-09-16T01:19:22.784Z,99.9
2018-09-16T01:20:30.001Z,99.9
2018-09-16T01:21:37.209Z,99.9
2018-09-16T01:22:44.425Z,99.9
2018-09-16T01:23:51.643Z,99.9
2018-09-16T01:24:58.860Z,99.9
2018-09-16T01:26:06.071Z,99.9
2018-09-16T01:27:13.288Z,99.9
2018-09-16T01:28:20.511Z,99.9
2018-09-16T01:29:27.722Z,99.9
2018-09-16T01:30:34.938Z,99.9
2018-09-16T01:31:42.147Z,99.9
2018-09-16T01:32:49.358Z,99.9
2018-09-16T01:33:56.567Z,99.9
2018-09-16T01:35:03.800Z,99.9
2018-09-16T01:36:10.994Z,99.9
2018-09-16T01:37:18.203Z,99.9
2018-09-16T01:38:25.137Z,99.9
2018-09-16T01:39:32.354Z,99.9
2018-09-16T01:40:39.557Z,99.9
2018-09-16T01:41:46.770Z,99.9
2018-09-16T01:42:53.981Z,99.9
2018-09-16T01:44:01.195Z,99.9
2018-09-16T01:45:08.409Z,99.9
2018-09-16T01:46:15.620Z,99.9
2018-09-16T01:47:22.826Z,99.9
2018-09-16T01:48:30.069Z,99.9
2018-09-16T01:49:37.002Z,99.9
2018-09-16T01:50:44.208Z,99.9
2018-09-16T01:51:51.420Z,99.9
2018-09-16T01:52:58.626Z,99.9
2018-09-16T01:54:05.837Z,99.9
2018-09-16T01:55:13.043Z,99.9
2018-09-16T01:56:19.981Z,99.9
2018-09-16T01:57:27.190Z,99.9
2018-09-16T01:58:34.400Z,99.9
2018-09-16T01:59:41.332Z,99.9
2018-09-16T02:00:48.542Z,99.9
2018-09-16T02:01:55.751Z,99.9
2018-09-16T02:03:02.964Z,99.9
2018-09-16T02:04:10.176Z,99.9
2018-09-16T02:05:17.389Z,99.9
2018-09-16T02:06:24.603Z,99.9
2018-09-16T02:07:31.825Z,99.9
2018-09-16T02:08:39.031Z,99.9
2018-09-16T02:09:46.237Z,99.9
2018-09-16T02:10:53.172Z,99.9
2018-09-16T02:12:00.416Z,99.9
2018-09-16T02:13:07.624Z,99.9
2018-09-16T02:14:14.832Z,99.9
2018-09-16T02:15:22.047Z,99.9
2018-09-16T02:16:29.310Z,99.9
2018-09-16T02:17:36.236Z,99.9
2018-09-16T02:18:43.177Z,99.9
2018-09-16T02:19:50.384Z,99.9
2018-09-16T02:20:57.592Z,99.9
2018-09-16T02:22:04.798Z,99.9
2018-09-16T02:23:12.009Z,99.9
2018-09-16T02:24:19.215Z,99.9
2018-09-16T02:25:26.431Z,99.9
2018-09-16T02:26:33.635Z,99.9
2018-09-16T02:27:40.844Z,99.9
2018-09-16T02:28:48.048Z,99.9
2018-09-16T02:29:55.261Z,99.9
2018-09-16T02:31:02.463Z,99.9
2018-09-16T02:32:09.674Z,99.9
2018-09-16T02:33:16.879Z,99.9
2018-09-16T02:34:24.098Z,99.9
2018-09-16T02:35:31.320Z,99.9
2018-09-16T02:36:38.519Z,99.9
2018-09-16T02:37:45.731Z,99.9
2018-09-16T02:38:52.943Z,99.9
2018-09-16T02:40:00.149Z,99.9
2018-09-16T02:41:07.356Z,99.9
2018-09-16T02:42:14.562Z,99.9
2018-09-16T02:43:21.865Z,99.9
2018-09-16T02:44:29.329Z,99.9
2018-09-16T02:45:36.282Z,99.9
2018-09-16T02:46:43.303Z,99.9
2018-09-16T02:47:50.505Z,99.9
2018-09-16T02:48:57.719Z,99.9
2018-09-16T02:50:04.931Z,99.9
2018-09-16T02:51:12.143Z,99.9
2018-09-16T02:52:19.348Z,99.9
2018-09-16T02:53:26.570Z,99.9
2018-09-16T02:54:33.778Z,99.9
2018-09-16T02:55:40.994Z,99.9
2018-09-16T02:56:48.208Z,99.9
2018-09-16T02:57:55.416Z,99.9
2018-09-16T02:59:02.630Z,99.9
2018-09-16T03:00:09.839Z,99.9
2018-09-16T03:01:16.782Z,99.9
2018-09-16T03:02:23.705Z,99.9
2018-09-16T03:03:30.911Z,99.9
2018-09-16T03:05:59.982Z,99.9
2018-09-16T03:07:06.917Z,99.9
2018-09-16T03:08:14.120Z,99.9
2018-09-16T03:09:21.330Z,99.9
2018-09-16T03:10:28.541Z,99.9
2018-09-16T03:11:35.765Z,99.9
2018-09-16T03:12:43.400Z,99.9
2018-09-16T03:13:50.609Z,99.9
2018-09-16T03:14:57.815Z,99.9
2018-09-16T03:16:05.031Z,99.9
2018-09-16T03:17:11.682Z,99.9
2018-09-16T03:18:18.620Z,99.9
2018-09-16T03:19:25.822Z,99.9
2018-09-16T03:20:33.029Z,99.9
2018-09-16T03:21:40.231Z,99.9
2018-09-16T03:22:47.158Z,99.9
2018-09-16T03:23:54.367Z,99.9
2018-09-16T03:25:01.579Z,99.9
2018-09-16T03:26:08.514Z,99.9
2018-09-16T03:27:15.722Z,99.9
2018-09-16T03:28:22.659Z,99.9
2018-09-16T03:29:29.874Z,99.9
2018-09-16T03:30:36.816Z,99.9
2018-09-16T03:31:44.072Z,99.9
2018-09-16T03:32:51.280Z,99.9
2018-09-16T03:33:58.488Z,99.9
2018-09-16T03:35:05.696Z,99.9
2018-09-16T03:36:12.907Z,99.9
2018-09-16T03:37:20.111Z,99.9
2018-09-16T03:38:27.328Z,99.9
2018-09-16T03:39:34.534Z,99.9
2018-09-16T03:40:41.738Z,99.9
2018-09-16T03:41:48.950Z,99.9
2018-09-16T03:42:56.174Z,99.9
2018-09-16T03:44:03.380Z,99.9
2018-09-16T03:45:10.588Z,99.9
2018-09-16T03:46:17.797Z,99.9
2018-09-16T03:47:25.006Z,99.9
2018-09-16T03:48:32.220Z,99.9
2018-09-16T03:49:39.432Z,99.9
2018-09-16T03:50:46.721Z,99.9
2018-09-16T03:51:54.240Z,99.9
2018-09-16T03:53:01.448Z,99.9
2018-09-16T03:54:08.653Z,99.9
2018-09-16T03:55:15.865Z,99.9
2018-09-16T03:56:23.070Z,99.9
2018-09-16T03:57:30.281Z,99.9
2018-09-16T03:58:37.483Z,99.9
2018-09-16T03:59:44.693Z,99.9
2018-09-16T04:00:51.894Z,99.9
2018-09-16T04:01:59.111Z,99.9
2018-09-16T04:03:06.039Z,99.9
2018-09-16T04:04:13.260Z,99.9
2018-09-16T04:05:20.461Z,99.9
2018-09-16T04:06:27.666Z,99.9
2018-09-16T04:07:34.881Z,99.9
2018-09-16T04:08:41.809Z,99.9
2018-09-16T04:09:49.018Z,99.9
2018-09-16T04:10:56.225Z,99.9
2018-09-16T04:12:03.432Z,99.9
2018-09-16T04:13:10.641Z,99.9
2018-09-16T04:14:17.893Z,99.9
2018-09-16T04:15:25.106Z,99.9
2018-09-16T04:16:32.315Z,99.9
2018-09-16T04:17:39.523Z,99.9
2018-09-16T04:18:46.786Z,99.9
2018-09-16T04:19:54.000Z,99.9
2018-09-16T04:21:01.302Z,99.9
2018-09-16T04:22:08.811Z,99.9
2018-09-16T04:23:16.022Z,99.9
2018-09-16T04:24:23.232Z,99.9
2018-09-16T04:25:30.161Z,99.9
2018-09-16T04:26:37.365Z,99.9
2018-09-16T04:27:44.580Z,99.9
2018-09-16T04:28:51.791Z,99.9
2018-09-16T04:29:59.001Z,99.9
2018-09-16T04:31:06.205Z,99.9
2018-09-16T04:32:13.423Z,99.9
2018-09-16T04:33:20.698Z,99.9
2018-09-16T04:34:28.009Z,99.9
2018-09-16T04:35:35.209Z,99.9
2018-09-16T04:36:42.421Z,99.9
2018-09-16T04:37:49.360Z,99.9
2018-09-16T04:38:56.570Z,99.9
2018-09-16T04:40:03.772Z,99.9
2018-09-16T04:41:10.979Z,99.9
2018-09-16T04:42:18.206Z,99.9
2018-09-16T04:43:25.415Z,99.9
2018-09-16T04:44:32.341Z,99.9
2018-09-16T04:45:39.561Z,99.9
2018-09-16T04:46:46.775Z,99.9
2018-09-16T04:47:53.983Z,99.9
2018-09-16T04:49:01.192Z,99.9
2018-09-16T04:50:08.125Z,99.9
2018-09-16T04:51:15.342Z,99.9
2018-09-16T04:52:22.545Z,99.9
2018-09-16T04:53:29.752Z,99.9
2018-09-16T04:54:36.958Z,99.9
2018-09-16T04:55:44.164Z,99.9
2018-09-16T04:56:51.377Z,99.9
2018-09-16T04:57:58.303Z,99.9
2018-09-16T04:59:05.510Z,99.9
2018-09-16T05:00:12.724Z,99.9
2018-09-16T05:01:19.927Z,99.9
2018-09-16T05:02:27.139Z,99.9
2018-09-16T05:03:34.348Z,99.9
2018-09-16T05:04:41.572Z,99.9
2018-09-16T05:05:48.779Z,99.9
2018-09-16T05:06:55.989Z,99.9
2018-09-16T05:08:03.196Z,99.9
2018-09-16T05:09:10.407Z,99.9
2018-09-16T05:10:17.619Z,99.9
2018-09-16T05:11:24.844Z,99.9
2018-09-16T05:12:32.053Z,99.9
2018-09-16T05:13:38.981Z,99.9
2018-09-16T05:14:46.192Z,99.9
2018-09-16T05:15:53.392Z,99.9
2018-09-16T05:17:00.611Z,99.9
2018-09-16T05:18:07.817Z,99.9
2018-09-16T05:19:15.027Z,99.9
2018-09-16T05:20:22.235Z,99.9
2018-09-16T05:21:29.441Z,99.9
2018-09-16T05:22:36.669Z,99.9
2018-09-16T05:23:44.188Z,99.9
2018-09-16T05:24:51.397Z,99.9
2018-09-16T05:25:58.610Z,99.9
2018-09-16T05:27:05.830Z,99.9
2018-09-16T05:28:13.029Z,99.9
2018-09-16T05:29:20.237Z,99.9
2018-09-16T05:30:27.443Z,99.9
2018-09-16T05:31:34.376Z,99.9
2018-09-16T05:32:41.587Z,99.9
2018-09-16T05:33:48.798Z,99.9
2018-09-16T05:34:56.007Z,99.9
2018-09-16T05:36:03.218Z,99.9
2018-09-16T05:37:10.432Z,99.9
2018-09-16T05:38:17.630Z,99.9
2018-09-16T05:39:24.835Z,99.9
2018-09-16T05:40:31.773Z,99.9
2018-09-16T05:41:38.979Z,99.9
2018-09-16T05:42:45.638Z,99.9
2018-09-16T05:43:52.852Z,99.9
2018-09-16T05:45:00.059Z,99.9
2018-09-16T05:46:07.019Z,99.9
2018-09-16T05:47:14.226Z,99.9
2018-09-16T05:48:21.439Z,99.9
2018-09-16T05:49:28.642Z,99.9
2018-09-16T05:50:35.573Z,99.9
2018-09-16T05:51:42.785Z,99.9
2018-09-16T05:52:50.103Z,99.9
2018-09-16T05:53:57.856Z,99.9
2018-09-16T05:55:05.070Z,99.9
2018-09-16T05:56:12.278Z,99.9
2018-09-16T05:57:19.483Z,99.9
2018-09-16T05:58:26.699Z,99.9
2018-09-16T05:59:34.127Z,99.9
2018-09-16T06:00:41.056Z,99.9
2018-09-16T06:01:48.276Z,99.9
2018-09-16T06:02:55.481Z,99.9
2018-09-16T06:04:02.689Z,99.9
2018-09-16T06:05:09.932Z,99.9
2018-09-16T06:06:17.691Z,99.9
2018-09-16T06:07:24.906Z,99.9
2018-09-16T06:08:32.109Z,99.9
2018-09-16T06:09:39.323Z,99.9
2018-09-16T06:10:46.585Z,99.9
2018-09-16T06:11:53.708Z,99.9
2018-09-16T06:13:00.919Z,99.9
2018-09-16T06:14:08.134Z,99.9
2018-09-16T06:15:15.069Z,99.9
2018-09-16T06:16:22.275Z,99.9
2018-09-16T06:17:29.211Z,99.9
2018-09-16T06:18:36.420Z,99.9
2018-09-16T06:19:43.352Z,99.9
2018-09-16T06:20:50.562Z,99.9
2018-09-16T06:21:57.498Z,99.9
2018-09-16T06:23:04.729Z,99.9
2018-09-16T06:24:11.935Z,99.9
2018-09-16T06:25:19.181Z,99.9
2018-09-16T06:26:26.389Z,99.9
2018-09-16T06:27:33.595Z,99.9
2018-09-16T06:28:40.804Z,99.9
2018-09-16T06:29:48.027Z,99.9
2018-09-16T06:30:55.269Z,99.9
2018-09-16T06:32:02.208Z,99.9
2018-09-16T06:33:09.418Z,99.9
2018-09-16T06:34:16.626Z,99.9
2018-09-16T06:35:23.849Z,99.9
2018-09-16T06:36:31.058Z,99.9
2018-09-16T06:37:38.270Z,99.9
2018-09-16T06:38:45.488Z,99.9
2018-09-16T06:39:52.705Z,99.9
2018-09-16T06:40:59.907Z,99.9
2018-09-16T06:42:07.121Z,99.9
2018-09-16T06:43:14.329Z,99.9
2018-09-16T06:44:21.541Z,99.9
2018-09-16T06:45:28.203Z,99.9
2018-09-16T06:46:35.399Z,99.9
2018-09-16T06:47:42.610Z,99.9
2018-09-16T06:48:49.827Z,99.9
2018-09-16T06:49:56.765Z,99.9
2018-09-16T06:51:04.069Z,99.9
2018-09-16T06:52:11.872Z,99.9
2018-09-16T06:53:19.092Z,99.9
2018-09-16T06:54:26.315Z,99.9
2018-09-16T06:55:33.563Z,99.9
2018-09-16T06:56:40.779Z,99.9
2018-09-16T06:57:48.001Z,99.9
2018-09-16T06:58:54.925Z,99.9
2018-09-16T07:00:02.136Z,99.9
2018-09-16T07:01:09.348Z,99.9
2018-09-16T07:02:16.564Z,99.9
2018-09-16T07:03:23.769Z,99.9
2018-09-16T07:04:30.981Z,99.9
2018-09-16T07:05:37.638Z,99.9
2018-09-16T07:06:44.846Z,99.9
2018-09-16T07:07:52.062Z,99.9
2018-09-16T07:08:59.274Z,99.9
2018-09-16T07:10:06.488Z,99.9
2018-09-16T07:11:13.700Z,99.9
2018-09-16T07:12:20.927Z,99.9
2018-09-16T07:13:28.135Z,99.9
2018-09-16T07:14:35.406Z,99.9
2018-09-16T07:15:42.934Z,99.9
2018-09-16T07:16:50.153Z,99.9
2018-09-16T07:17:57.364Z,99.9
2018-09-16T07:19:04.781Z,99.9
2018-09-16T07:20:12.014Z,99.9
2018-09-16T07:21:19.433Z,99.9
2018-09-16T07:22:26.649Z,99.9
2018-09-16T07:23:33.864Z,99.9
2018-09-16T07:24:41.081Z,99.9
2018-09-16T07:25:48.291Z,99.9
2018-09-16T07:26:55.511Z,99.9
2018-09-16T07:28:03.303Z,99.9
2018-09-16T07:29:10.520Z,99.9
2018-09-16T07:30:17.736Z,99.9
2018-09-16T07:31:24.673Z,99.9
2018-09-16T07:32:31.888Z,99.9
2018-09-16T07:33:39.151Z,99.1
2018-09-16T07:34:46.564Z,96.4
2018-09-16T07:35:53.781Z,96.4
2018-09-16T07:37:00.993Z,97.6
2018-09-16T07:38:08.209Z,94.2
2018-09-16T07:39:15.448Z,92.9
2018-09-16T07:40:22.650Z,93.6
2018-09-16T07:41:29.861Z,91.2
2018-09-16T07:42:37.071Z,90.9
2018-09-16T07:43:44.301Z,91.3
2018-09-16T07:44:51.509Z,81.4
2018-09-16T07:45:58.464Z,77
2018-09-16T07:47:05.656Z,68.7
2018-09-16T07:48:12.868Z,80.7
2018-09-16T07:49:20.082Z,79.3
2018-09-16T07:50:27.294Z,76.9
2018-09-16T07:51:34.231Z,68.8
2018-09-16T07:52:41.463Z,72
2018-09-16T07:53:48.762Z,58.6
2018-09-16T07:54:55.973Z,53.8
2018-09-16T07:56:03.183Z,51.7
2018-09-16T07:57:10.412Z,64
2018-09-16T07:58:17.635Z,50.5
2018-09-16T07:59:24.852Z,60.8
2018-09-16T08:00:32.096Z,56.6
2018-09-16T08:01:39.410Z,48.5
2018-09-16T08:02:46.641Z,41.5
2018-09-16T08:03:53.832Z,46.2
2018-09-16T08:05:01.047Z,45
2018-09-16T08:06:08.396Z,49.8
2018-09-16T08:07:15.955Z,37.9
2018-09-16T08:08:22.880Z,43.5
2018-09-16T08:09:30.096Z,46.1
2018-09-16T08:10:37.029Z,42.9
2018-09-16T08:11:43.959Z,39.4
2018-09-16T08:12:51.182Z,42.9
2018-09-16T08:13:58.425Z,38.5
2018-09-16T08:15:05.660Z,37.6
2018-09-16T08:16:12.885Z,38.8
2018-09-16T08:17:20.104Z,37.5
2018-09-16T08:18:27.319Z,31.6
2018-09-16T08:19:34.538Z,28.6
2018-09-16T08:20:41.752Z,35.9
2018-09-16T08:21:48.967Z,30
2018-09-16T08:22:56.174Z,32.3
2018-09-16T08:24:03.389Z,28.8
2018-09-16T08:25:10.600Z,29.5
2018-09-16T08:26:17.821Z,26.3
2018-09-16T08:27:25.034Z,25.2
2018-09-16T08:28:32.281Z,24.6
2018-09-16T08:29:40.015Z,25.9
2018-09-16T08:30:47.230Z,29.4
2018-09-16T08:31:54.171Z,27.1
2018-09-16T08:33:01.123Z,33.2
2018-09-16T08:34:08.337Z,34.5
2018-09-16T08:35:15.566Z,30.2
2018-09-16T08:36:22.770Z,25.9
2018-09-16T08:37:30.014Z,24.7
2018-09-16T08:38:36.959Z,29
2018-09-16T08:39:44.187Z,25.9
2018-09-16T08:40:51.402Z,25
2018-09-16T08:41:58.632Z,23.5
2018-09-16T08:43:05.844Z,21.1
2018-09-16T08:44:13.067Z,18.6
2018-09-16T08:45:20.281Z,19.7
2018-09-16T08:46:27.497Z,21.1
2018-09-16T08:47:34.720Z,22.8
2018-09-16T08:48:41.937Z,20.3
2018-09-16T08:49:49.155Z,20.5
2018-09-16T08:50:56.367Z,21.5
2018-09-16T08:52:03.636Z,22.6
2018-09-16T08:53:10.937Z,21.4
2018-09-16T08:54:18.153Z,22.7
2018-09-16T08:55:25.376Z,17.9
2018-09-16T08:56:32.597Z,18.1
2018-09-16T08:57:39.848Z,16.6
2018-09-16T08:58:47.065Z,15.5
2018-09-16T08:59:54.005Z,17.2
2018-09-16T09:01:00.951Z,19.1
2018-09-16T09:02:08.170Z,16.3
2018-09-16T09:03:15.391Z,15.2
2018-09-16T09:04:22.693Z,15.7
2018-09-16T09:05:30.161Z,16
2018-09-16T09:06:37.394Z,18.2
2018-09-16T09:07:44.061Z,15.5
2018-09-16T09:08:51.285Z,15.5
2018-09-16T09:09:58.535Z,19.4
2018-09-16T09:11:05.472Z,12
2018-09-16T09:12:12.692Z,14.6
2018-09-16T09:13:19.636Z,11.3
2018-09-16T09:14:26.677Z,9.9
2018-09-16T09:15:34.213Z,13.5
2018-09-16T09:16:41.167Z,10.4
2018-09-16T09:17:48.118Z,11.9
2018-09-16T09:18:55.333Z,12
2018-09-16T09:20:02.563Z,11.3
2018-09-16T09:21:09.782Z,12.4
2018-09-16T09:22:17.000Z,11.7
2018-09-16T09:23:24.299Z,12.1
2018-09-16T09:24:31.859Z,11.9
2018-09-16T09:25:39.086Z,9.8
2018-09-16T09:26:46.302Z,10.4
2018-09-16T09:27:53.516Z,12
2018-09-16T09:29:00.802Z,12.8
2018-09-16T09:30:08.272Z,13
2018-09-16T09:31:15.489Z,11.3
2018-09-16T09:32:22.715Z,12
2018-09-16T09:33:29.660Z,12.4
2018-09-16T09:34:36.900Z,11.6
2018-09-16T09:35:44.195Z,13.4
2018-09-16T09:36:51.700Z,9.4
2018-09-16T09:37:58.932Z,11.7
2018-09-16T09:39:06.211Z,7.4
2018-09-16T09:40:13.163Z,8.8
2018-09-16T09:41:20.386Z,5.5
2018-09-16T09:42:27.602Z,7.4
2018-09-16T09:43:34.834Z,7.1
2018-09-16T09:44:42.075Z,9.9
2018-09-16T09:45:49.306Z,4.5
2018-09-16T09:46:56.534Z,8.2
2018-09-16T09:48:03.764Z,4.5
2018-09-16T09:50:32.857Z,11.7
2018-09-16T09:51:40.083Z,7.4
2018-09-16T09:52:47.302Z,6.4
2018-09-16T09:53:54.529Z,6.4
2018-09-16T09:55:01.486Z,4.5
2018-09-16T09:56:08.710Z,2.9
2018-09-16T09:57:15.932Z,2.2
2018-09-16T09:58:23.165Z,2.1
2018-09-16T09:59:30.396Z,2.1
2018-09-16T10:00:37.602Z,3.3
2018-09-16T10:01:44.829Z,5.6
2018-09-16T10:02:51.809Z,5.9
2018-09-16T10:03:59.036Z,7.2
2018-09-16T10:05:05.980Z,1
2018-09-16T10:06:13.341Z,1
2018-09-16T10:07:20.931Z,1.7
2018-09-16T10:08:27.894Z,1
2018-09-16T10:09:35.121Z,2
2018-09-16T10:10:42.344Z,1
2018-09-16T10:11:49.568Z,1.7
2018-09-16T10:12:56.792Z,1.6
2018-09-16T10:14:04.028Z,1.8
2018-09-16T10:15:11.251Z,1.3
2018-09-16T10:16:18.471Z,1
2018-09-16T10:17:25.418Z,2.1
2018-09-16T10:18:32.411Z,1
2018-09-16T10:19:39.632Z,1
2018-09-16T10:20:46.850Z,3.2
2018-09-16T10:21:53.797Z,1
2018-09-16T10:23:01.019Z,2.3
2018-09-16T10:24:08.341Z,1.2
2018-09-16T10:25:16.036Z,1.4
2018-09-16T10:26:22.988Z,1.4
2018-09-16T10:27:30.207Z,1
2018-09-16T10:28:37.441Z,1
2018-09-16T10:29:44.665Z,3.1
2018-09-16T10:30:51.878Z,1.6
2018-09-16T10:31:58.830Z,4.3
2018-09-16T10:33:06.047Z,1
2018-09-16T10:34:13.270Z,3
2018-09-16T10:35:20.493Z,1
2018-09-16T10:36:27.718Z,1.2
2018-09-16T10:37:34.950Z,1.4
2018-09-16T10:38:42.200Z,1
2018-09-16T10:39:49.545Z,2
2018-09-16T10:40:56.512Z,1
2018-09-16T10:42:03.735Z,1
2018-09-16T10:43:10.954Z,1
2018-09-16T10:44:18.179Z,1
2018-09-16T10:45:25.405Z,1
2018-09-16T10:46:32.629Z,1
2018-09-16T10:47:39.860Z,1
2018-09-16T10:50:08.697Z,1
2018-09-16T10:51:15.922Z,1
2018-09-16T10:52:23.150Z,1.3
2018-09-16T10:53:30.104Z,1
2018-09-16T10:54:37.331Z,1
2018-09-16T10:55:44.543Z,1
2018-09-16T10:56:51.777Z,1
2018-09-16T10:57:58.725Z,1
2018-09-16T10:59:05.955Z,1
2018-09-16T11:00:13.173Z,1
2018-09-16T11:01:20.407Z,1
2018-09-16T11:02:27.641Z,1
2018-09-16T11:03:34.871Z,1
2018-09-16T11:04:41.816Z,1
2018-09-16T11:05:48.767Z,1
2018-09-16T11:06:55.992Z,1
2018-09-16T11:08:03.337Z,1
2018-09-16T11:09:10.734Z,1
2018-09-16T11:10:17.957Z,1
2018-09-16T11:11:25.184Z,1
2018-09-16T11:12:32.407Z,1
2018-09-16T11:13:39.652Z,1
2018-09-16T11:14:46.879Z,1
2018-09-16T11:15:53.886Z,1
2018-09-16T11:17:01.465Z,1
2018-09-16T11:18:08.680Z,1
2018-09-16T11:19:15.902Z,1
2018-09-16T11:20:23.132Z,1
2018-09-16T11:21:30.364Z,1
2018-09-16T11:22:37.593Z,1
2018-09-16T11:23:44.549Z,1
2018-09-16T11:24:51.768Z,1
2018-09-16T11:25:59.209Z,1
2018-09-16T11:27:06.436Z,1
2018-09-16T11:28:13.659Z,1
2018-09-16T11:29:20.891Z,1
2018-09-16T11:30:28.117Z,1
2018-09-16T11:31:35.340Z,1
2018-09-16T11:32:42.564Z,1
2018-09-16T11:33:49.785Z,1
2018-09-16T11:34:57.011Z,1
2018-09-16T11:36:04.239Z,1
2018-09-16T11:37:11.472Z,1
2018-09-16T11:38:18.706Z,1
2018-09-16T11:39:25.924Z,1
2018-09-16T11:40:33.154Z,1
2018-09-16T11:41:40.389Z,1
2018-09-16T11:42:47.611Z,1
2018-09-16T11:43:54.838Z,1
2018-09-16T11:45:01.791Z,1
2018-09-16T11:46:09.009Z,1
2018-09-16T11:47:15.960Z,1
2018-09-16T11:48:23.193Z,1
2018-09-16T11:49:30.413Z,1
2018-09-16T11:50:37.373Z,1
2018-09-16T11:51:44.749Z,1
2018-09-16T11:52:51.984Z,1
2018-09-16T11:53:58.930Z,1
2018-09-16T11:55:05.877Z,1
2018-09-16T11:56:13.101Z,1
2018-09-16T11:57:20.329Z,1
2018-09-16T11:58:27.553Z,1
2018-09-16T11:59:34.502Z,1
2018-09-16T12:00:41.718Z,1
2018-09-16T12:01:48.702Z,1
2018-09-16T12:02:55.946Z,1
2018-09-16T12:04:03.177Z,1
2018-09-16T12:05:10.415Z,1
2018-09-16T12:06:17.435Z,1
2018-09-16T12:07:24.658Z,1
2018-09-16T12:08:31.614Z,1
2018-09-16T12:09:38.845Z,1
2018-09-16T12:10:46.065Z,1
2018-09-16T12:11:53.290Z,1
2018-09-16T12:13:00.508Z,1
2018-09-16T12:14:07.740Z,1
2018-09-16T12:15:15.010Z,1
2018-09-16T12:16:22.239Z,1
2018-09-16T12:17:29.464Z,1
2018-09-16T12:18:36.689Z,1
2018-09-16T12:19:43.915Z,1
2018-09-16T12:20:51.135Z,1
2018-09-16T12:21:58.360Z,1
2018-09-16T12:23:05.583Z,1
2018-09-16T12:24:12.799Z,1
2018-09-16T12:25:20.018Z,1
2018-09-16T12:26:27.240Z,1
2018-09-16T12:27:34.463Z,1
2018-09-16T12:28:41.684Z,1
2018-09-16T12:29:48.927Z,1
2018-09-16T12:30:56.485Z,1
2018-09-16T12:32:04.072Z,1
2018-09-16T12:33:11.299Z,1
2018-09-16T12:34:18.535Z,1
2018-09-16T12:35:25.499Z,1
2018-09-16T12:36:32.727Z,1
2018-09-16T12:37:39.951Z,1
2018-09-16T12:38:47.172Z,1
2018-09-16T12:39:54.124Z,1
2018-09-16T12:41:01.345Z,1
2018-09-16T12:42:08.571Z,1
2018-09-16T12:43:15.520Z,1
2018-09-16T12:44:22.472Z,1
2018-09-16T12:45:29.700Z,1
2018-09-16T12:46:36.932Z,1
2018-09-16T12:47:44.109Z,1
2018-09-16T12:48:51.318Z,1
2018-09-16T12:49:58.542Z,1
2018-09-16T12:51:05.496Z,1
2018-09-16T12:52:12.715Z,1
2018-09-16T12:53:19.943Z,1
2018-09-16T12:54:27.165Z,1
2018-09-16T12:55:34.473Z,1
2018-09-16T12:56:41.694Z,1
2018-09-16T12:57:48.917Z,1
2018-09-16T12:58:56.183Z,1
2018-09-16T13:00:03.398Z,1
2018-09-16T13:01:10.624Z,1
2018-09-16T13:02:17.841Z,1
2018-09-16T13:03:25.062Z,1
2018-09-16T13:04:32.310Z,1
2018-09-16T13:05:40.004Z,1
2018-09-16T13:06:47.219Z,1
2018-09-16T13:07:54.437Z,1
2018-09-16T13:09:01.663Z,1
2018-09-16T13:10:08.892Z,1
2018-09-16T13:11:16.115Z,1
2018-09-16T13:12:23.325Z,1
2018-09-16T13:13:30.571Z,1
2018-09-16T13:14:37.570Z,1
2018-09-16T13:15:44.798Z,1
2018-09-16T13:16:52.017Z,1
2018-09-16T13:17:59.226Z,1
2018-09-16T13:19:06.454Z,1
2018-09-16T13:20:13.679Z,1
2018-09-16T13:21:20.906Z,1
2018-09-16T13:22:28.127Z,1
2018-09-16T13:23:35.345Z,1
2018-09-16T13:24:42.573Z,1
2018-09-16T13:25:49.790Z,1
2018-09-16T13:26:57.019Z,1
2018-09-16T13:28:04.239Z,1
2018-09-16T13:29:11.463Z,1
2018-09-16T13:30:18.691Z,1
2018-09-16T13:31:25.946Z,1
2018-09-16T13:32:33.166Z,1
2018-09-16T13:33:40.108Z,1
2018-09-16T13:34:47.057Z,1
2018-09-16T13:35:54.278Z,1
2018-09-16T13:37:01.497Z,1
2018-09-16T13:38:08.770Z,1
2018-09-16T13:39:15.747Z,1
2018-09-16T13:40:22.968Z,1
2018-09-16T13:41:29.920Z,1
2018-09-16T13:42:37.147Z,1
2018-09-16T13:43:44.370Z,1
2018-09-16T13:44:51.594Z,1
2018-09-16T13:45:58.820Z,1
2018-09-16T13:47:05.764Z,1
2018-09-16T13:48:12.703Z,1
2018-09-16T13:49:19.933Z,1
2018-09-16T13:50:27.154Z,1
2018-09-16T13:51:34.378Z,1
2018-09-16T13:52:41.598Z,1
2018-09-16T13:53:48.552Z,1
2018-09-16T13:54:55.504Z,1
2018-09-16T13:56:02.731Z,1
2018-09-16T13:57:09.961Z,1
2018-09-16T13:58:17.232Z,1
2018-09-16T13:59:24.195Z,1
2018-09-16T14:00:31.423Z,1
2018-09-16T14:01:38.643Z,1
2018-09-16T14:02:45.859Z,1
2018-09-16T14:03:53.077Z,1
2018-09-16T14:05:00.298Z,1
2018-09-16T14:06:07.522Z,1
2018-09-16T14:07:14.732Z,1
2018-09-16T14:08:21.960Z,1
2018-09-16T14:09:29.197Z,1
2018-09-16T14:10:36.558Z,1
2018-09-16T14:11:43.779Z,1
2018-09-16T14:12:50.730Z,1
2018-09-16T14:13:57.676Z,1
2018-09-16T14:15:04.891Z,1
2018-09-16T14:16:12.112Z,1
2018-09-16T14:17:18.797Z,1
2018-09-16T14:18:26.028Z,1
2018-09-16T14:19:33.250Z,1
2018-09-16T14:20:40.215Z,1
2018-09-16T14:21:47.423Z,1
2018-09-16T14:22:54.648Z,1
2018-09-16T14:24:01.593Z,1
2018-09-16T14:25:08.544Z,1
2018-09-16T14:26:15.759Z,1
2018-09-16T14:27:22.991Z,1
2018-09-16T14:28:29.939Z,1
2018-09-16T14:29:37.162Z,1
2018-09-16T14:30:44.378Z,1
2018-09-16T14:31:51.605Z,1
2018-09-16T14:32:58.828Z,1
2018-09-16T14:34:05.780Z,1
2018-09-16T14:35:12.731Z,1
2018-09-16T14:36:20.020Z,1
2018-09-16T14:37:26.970Z,1
2018-09-16T14:38:34.206Z,1
2018-09-16T14:39:41.159Z,1
2018-09-16T14:40:48.383Z,1
2018-09-16T14:41:55.346Z,1
2018-09-16T14:43:02.570Z,1
2018-09-16T14:44:09.526Z,1
2018-09-16T14:45:16.734Z,1
2018-09-16T14:46:23.960Z,1
2018-09-16T14:47:30.906Z,1
2018-09-16T14:48:37.887Z,1
2018-09-16T14:49:45.109Z,1
2018-09-16T14:50:51.777Z,1
2018-09-16T14:51:58.998Z,1
2018-09-16T14:53:06.228Z,1
2018-09-16T14:54:13.447Z,1
2018-09-16T14:55:20.670Z,1
2018-09-16T14:56:27.890Z,1
2018-09-16T14:57:35.127Z,1
2018-09-16T14:58:42.354Z,1
2018-09-16T14:59:49.303Z,1
2018-09-16T15:00:56.529Z,1
2018-09-16T15:02:03.474Z,1
2018-09-16T15:03:10.690Z,1
2018-09-16T15:04:17.909Z,1
2018-09-16T15:05:25.131Z,1
2018-09-16T15:06:32.347Z,1
2018-09-16T15:07:39.628Z,1
2018-09-16T15:08:47.073Z,1
2018-09-16T15:09:54.300Z,1
2018-09-16T15:11:01.525Z,1
2018-09-16T15:12:08.748Z,1
2018-09-16T15:13:16.035Z,1
2018-09-16T15:14:23.618Z,1
2018-09-16T15:15:30.892Z,1
2018-09-16T15:16:38.099Z,1
2018-09-16T15:17:45.332Z,1
2018-09-16T15:18:52.551Z,1
2018-09-16T15:19:59.776Z,1
2018-09-16T15:21:07.091Z,1
2018-09-16T15:22:14.684Z,1
2018-09-16T15:23:21.648Z,1
2018-09-16T15:24:28.863Z,1
2018-09-16T15:25:36.087Z,1
2018-09-16T15:26:43.307Z,1
2018-09-16T15:27:50.533Z,1
2018-09-16T15:28:57.756Z,1
2018-09-16T15:30:04.742Z,1
2018-09-16T15:31:12.112Z,1
2018-09-16T15:32:19.330Z,1